Airport ID:KN38
Update Time (UTC):18/07/2019 14:01
Wind Speed (Knots):3
Wind Direction (Magnetic):60
Temperature (°C):23
Dew Point (°C):22
Humidity (%):96
Altimeter (inHg):29.98
Density Altitude (Feet):3500
Visibility (Miles):10+
Clouds (Hundreds of feet):FEW007 BKN016 OVC041
Present Weather:
METAR:METAR KN38 181400Z AUTO 05003KT 10SM FEW007 BKN014 OVC041 23/22 A2998 RMK AO2

The data displayed is for advisory purposes only and is not to be used for flight planning or operations.

This page is not automatically refreshed. Reload the page to see current data.